METAR Data
IDs: Format: Raw Decoded Include TAF

Data at: 1352 UTC 13 Dec 2019

KMEZ 131335Z AUTO 00000KT 10SM OVC024 05/02 A2997 RMK AO2
KMEZ 131315Z AUTO 00000KT 10SM OVC024 05/02 A2996 RMK AO2
KMEZ 131255Z AUTO 00000KT 10SM OVC024 04/02 A2997 RMK AO2
KMEZ 131235Z AUTO 00000KT 10SM OVC026 04/02 A2998 RMK AO2
KMEZ 131215Z AUTO 00000KT 10SM OVC026 03/01 A2997 RMK AO2
KMEZ 131155Z AUTO 00000KT 10SM BKN028 03/01 A2996 RMK AO2
KMEZ 131135Z AUTO 00000KT 10SM BKN028 OVC049 02/01 A2997 RMK AO2
KMEZ 131115Z AUTO 00000KT 10SM BKN049 02/01 A2998 RMK AO2
KMEZ 131055Z AUTO 00000KT 10SM SCT047 02/01 A2998 RMK AO2
KMEZ 131035Z AUTO 00000KT 10SM CLR 02/01 A2998 RMK AO2
KMEZ 131015Z AUTO 00000KT 10SM CLR 02/01 A2999 RMK AO2
KMEZ 130955Z AUTO 00000KT 10SM CLR 02/01 A2999 RMK AO2
KMEZ 130935Z AUTO 00000KT 10SM CLR 02/01 A3001 RMK AO2
KMEZ 130835Z AUTO 00000KT 10SM CLR 02/00 A3002 RMK AO2
KMEZ 130815Z AUTO 00000KT 10SM CLR 02/01 A3003 RMK AO2
KMEZ 130755Z AUTO 00000KT 10SM CLR 02/00 A3003 RMK AO2
KMEZ 130735Z AUTO 00000KT 10SM CLR 02/00 A3003 RMK AO2
KMEZ 130715Z AUTO 00000KT 10SM CLR 02/00 A3003 RMK AO2
KMEZ 130655Z AUTO 00000KT 10SM CLR 02/00 A3004 RMK AO2
KMEZ 130635Z AUTO 00000KT 10SM SCT055 02/00 A3005 RMK AO2
KMEZ 130615Z AUTO 00000KT 10SM CLR 02/00 A3006 RMK AO2
KMEZ 130555Z AUTO 00000KT 10SM CLR 02/00 A3006 RMK AO2
KMEZ 130535Z AUTO 00000KT 10SM CLR 01/00 A3008 RMK AO2 TSNO
KMEZ 130515Z AUTO 00000KT 10SM CLR 01/00 A3008 RMK AO2
KMEZ 130455Z AUTO 00000KT 10SM CLR 01/00 A3009 RMK AO2
KMEZ 130435Z AUTO 00000KT 10SM CLR 00/00 A3009 RMK AO2
KMEZ 130415Z AUTO 00000KT 10SM CLR 01/00 A3009 RMK AO2
KMEZ 130355Z AUTO 00000KT 10SM CLR 01/M01 A3010 RMK AO2
KMEZ 130335Z AUTO 00000KT 10SM CLR 01/00 A3010 RMK AO2
KMEZ 130315Z AUTO 00000KT 10SM CLR 01/00 A3011 RMK AO2
KMEZ 130255Z AUTO 00000KT 10SM CLR 01/00 A3011 RMK AO2
KMEZ 130235Z AUTO 00000KT 10SM CLR 02/00 A3011 RMK AO2
KMEZ 130215Z AUTO 00000KT 10SM CLR 02/00 A3011 RMK AO2 TSNO
KMEZ 130155Z AUTO 00000KT 10SM CLR 02/00 A3011 RMK AO2
KMEZ 130135Z AUTO 00000KT 10SM CLR 02/00 A3010 RMK AO2
KMEZ 130115Z AUTO 00000KT 10SM CLR 04/00 A3011 RMK AO2
KMEZ 130055Z AUTO 00000KT 10SM CLR 04/00 A3012 RMK AO2
KMEZ 130035Z AUTO 00000KT 10SM CLR 05/00 A3012 RMK AO2
KMEZ 130015Z AUTO 00000KT 10SM CLR 07/00 A3011 RMK AO2
KMEZ 122355Z AUTO 00000KT 10SM CLR 07/00 A3011 RMK AO2
KMEZ 122335Z AUTO 00000KT 10SM CLR 07/00 A3011 RMK AO2
KMEZ 122315Z AUTO 00000KT 10SM CLR 09/00 A3011 RMK AO2
KMEZ 122255Z AUTO 00000KT 10SM CLR 10/M01 A3011 RMK AO2
KMEZ 122235Z AUTO 00000KT 10SM CLR 11/M01 A3011 RMK AO2
KMEZ 122215Z AUTO 13003KT 10SM CLR 12/M02 A3011 RMK AO2
KMEZ 122155Z AUTO 12003KT 10SM CLR 12/M02 A3012 RMK AO2
KMEZ 122135Z AUTO 14003KT 10SM CLR 12/M02 A3013 RMK AO2
KMEZ 122115Z AUTO 00000KT 10SM CLR 12/M02 A3014 RMK AO2
KMEZ 122055Z AUTO 00000KT 10SM CLR 12/M03 A3014 RMK AO2
KMEZ 122035Z AUTO 16003KT 10SM CLR 13/M02 A3015 RMK AO2
KMEZ 122015Z AUTO 11003KT 10SM CLR 13/M02 A3016 RMK AO2
KMEZ 121955Z AUTO 14004KT 10SM CLR 13/M03 A3017 RMK AO2
KMEZ 121935Z AUTO 14003KT 10SM CLR 13/M03 A3017 RMK AO2
KMEZ 121815Z AUTO 00000KT 10SM CLR 11/M03 A3023 RMK AO2
KMEZ 121755Z AUTO 00000KT 10SM CLR 11/M03 A3025 RMK AO2
KMEZ 121735Z AUTO 16003KT 10SM CLR 11/M03 A3028 RMK AO2 TSNO
KMEZ 121715Z AUTO 00000KT 10SM CLR 11/M03 A3030 RMK AO2
KMEZ 121655Z AUTO 00000KT 10SM CLR 11/M03 A3032 RMK AO2
KMEZ 121635Z AUTO 05003KT 10SM CLR 08/00 A3032 RMK AO2
KMEZ 121615Z AUTO 00000KT 10SM CLR 06/01 A3033 RMK AO2
KMEZ 121555Z AUTO 00000KT 10SM CLR 05/00 A3033 RMK AO2
KMEZ 121455Z AUTO 00000KT 10SM CLR 01/00 A3035 RMK AO2
KMEZ 121435Z AUTO 00000KT 10SM CLR 01/00 A3035 RMK AO2
KMEZ 121415Z AUTO 00000KT 10SM CLR 00/M01 A3036 RMK AO2
KMEZ 121355Z AUTO 00000KT 10SM CLR 00/M01 A3036 RMK AO2
KMEZ 121335Z AUTO 00000KT 10SM CLR M01/M02 A3037 RMK AO2
KMEZ 121255Z AUTO 00000KT 10SM CLR M01/M02 A3038 RMK AO2
KMEZ 121235Z AUTO 00000KT 10SM CLR 00/M02 A3038 RMK AO2
KMEZ 121215Z AUTO 00000KT 10SM CLR M01/M02 A3037 RMK AO2
KMEZ 121155Z AUTO 00000KT 10SM CLR 00/M02 A3037 RMK AO2
KMEZ 121135Z AUTO 00000KT 10SM CLR 00/M02 A3037 RMK AO2
KMEZ 121115Z AUTO 28003KT 10SM CLR M02/M03 A3037 RMK AO2
KMEZ 120935Z AUTO 00000KT 10SM CLR M01/M02 A3037 RMK AO2 TSNO
KMEZ 120855Z AUTO 00000KT 10SM CLR M01/M02 A3038 RMK AO2
KMEZ 120835Z AUTO 00000KT 10SM CLR M02/M03 A3039 RMK AO2
KMEZ 120815Z AUTO 00000KT 10SM CLR 00/M02 A3039 RMK AO2
KMEZ 120755Z AUTO 25003KT 10SM CLR 00/M02 A3040 RMK AO2
KMEZ 120735Z AUTO 00000KT 10SM CLR 00/M01 A3039 RMK AO2
KMEZ 120655Z AUTO 00000KT 10SM CLR 00/M01 A3041 RMK AO2
KMEZ 120635Z AUTO 00000KT 10SM CLR M01/M02 A3042 RMK AO2
KMEZ 120615Z AUTO 00000KT 10SM CLR M01/M02 A3042 RMK AO2
KMEZ 120555Z AUTO 00000KT 10SM CLR 00/M01 A3043 RMK AO2
KMEZ 120535Z AUTO 00000KT 10SM CLR 00/M01 A3043 RMK AO2
KMEZ 120515Z AUTO 00000KT 10SM CLR 00/M02 A3043 RMK AO2
KMEZ 120455Z AUTO 00000KT 10SM CLR 00/M01 A3043 RMK AO2
KMEZ 120435Z AUTO 00000KT 10SM CLR 01/M01 A3043 RMK AO2
KMEZ 120415Z AUTO 00000KT 10SM CLR 00/M02 A3043 RMK AO2
KMEZ 120335Z AUTO 00000KT 10SM CLR 00/M02 A3043 RMK AO2
KMEZ 120315Z AUTO 00000KT 10SM CLR 00/M02 A3043 RMK AO2
KMEZ 120255Z AUTO 00000KT 10SM CLR 00/M02 A3043 RMK AO2
KMEZ 120235Z AUTO 00000KT 10SM CLR 00/M02 A3044 RMK AO2
KMEZ 120215Z AUTO 00000KT 10SM CLR 01/M01 A3043 RMK AO2
KMEZ 120155Z AUTO 00000KT 10SM CLR 01/M02 A3043 RMK AO2